Time;durP1;ratioP1;P1;durP2;ratioP2;P2;SDS_P1;SDS_P2;PMS_P1;PMS_P2;Temp;Humidity;BMP_temperature;BMP_pressure;BME280_temperature;BME280_humidity;BME280_pressure;Samples;Min_cycle;Max_cycle;Signal;HPM_P1;HPM_P2
2022/05/20 00:00:10;;;;;;;9.20;6.35;;;;;;;;;;4985859;28;20545;-76
2022/05/20 00:02:36;;;;;;;13.68;7.50;;;;;;;;;;5009501;28;20054;-75
2022/05/20 00:05:02;;;;;;;8.85;5.68;;;;;;;;;;4992563;28;20062;-75
2022/05/20 00:07:28;;;;;;;15.10;6.78;;;;;;;;;;4987897;28;20501;-75
2022/05/20 00:09:54;;;;;;;16.23;6.82;;;;;;;;;;4980440;28;20114;-75
2022/05/20 00:12:20;;;;;;;9.45;6.15;;;;;;;;;;4958842;28;20138;-75
2022/05/20 00:14:46;;;;;;;12.35;6.00;;;;;;;;;;4992352;28;20417;-75
2022/05/20 00:17:12;;;;;;;13.70;6.57;;;;;;;;;;5000700;28;20027;-75
2022/05/20 00:19:38;;;;;;;11.75;6.75;;;;;;;;;;4980044;28;20060;-76
2022/05/20 00:22:05;;;;;;;9.70;6.53;;;;;;;;;;4975065;28;20505;-75
2022/05/20 00:24:32;;;;;;;10.32;6.85;;;;;;;;;;4992590;28;20031;-76
2022/05/20 00:26:58;;;;;;;18.55;7.40;;;;;;;;;;4979313;28;20026;-76
2022/05/20 00:29:24;;;;;;;15.85;7.22;;;;;;;;;;4976356;28;20039;-75
2022/05/20 00:31:51;;;;;;;13.45;6.68;;;;;;;;;;4972043;28;20038;-75
2022/05/20 00:34:17;;;;;;;7.97;6.28;;;;;;;;;;4979395;28;20035;-75
2022/05/20 00:36:43;;;;;;;9.80;6.55;;;;;;;;;;4975793;28;20426;-75
2022/05/20 00:39:09;;;;;;;12.23;6.88;;;;;;;;;;4958032;28;20609;-75
2022/05/20 00:41:35;;;;;;;8.40;6.53;;;;;;;;;;4979178;28;20026;-75
2022/05/20 00:44:01;;;;;;;9.10;6.32;;;;;;;;;;4984812;28;20042;-76
2022/05/20 00:46:28;;;;;;;9.60;6.72;;;13.50;99.90;;;;;;4989124;28;20045;-76
2022/05/20 00:48:59;;;;;;;8.52;6.68;;;;;;;;;;5007251;28;20069;-76
2022/05/20 00:51:52;;;;;;;10.68;6.25;;;13.30;99.90;;;;;;4981357;28;20034;-76
2022/05/20 00:54:24;;;;;;;10.95;7.10;;;;;;;;;;4989299;28;20026;-75
2022/05/20 00:57:12;;;;;;;12.80;6.47;;;;;;;;;;4990201;28;20026;-75
2022/05/20 00:59:41;;;;;;;11.63;6.93;;;13.20;99.90;;;;;;4989546;28;20038;-75
2022/05/20 01:02:09;;;;;;;13.13;6.68;;;;;;;;;;4986391;28;20070;-75
2022/05/20 01:04:35;;;;;;;12.85;7.28;;;;;;;;;;4985631;28;20062;-75
2022/05/20 01:07:01;;;;;;;9.35;6.15;;;;;;;;;;4976195;28;20089;-75
2022/05/20 01:09:27;;;;;;;11.45;6.95;;;;;;;;;;4995019;28;20026;-75
2022/05/20 01:11:53;;;;;;;9.80;6.03;;;;;;;;;;4984462;28;20110;-75
2022/05/20 01:14:21;;;;;;;9.20;6.57;;;;;;;;;;4975339;28;20071;-74
2022/05/20 01:16:47;;;;;;;10.65;6.25;;;;;;;;;;4980817;28;20045;-74
2022/05/20 01:19:17;;;;;;;9.20;6.00;;;;;;;;;;4975247;28;20113;-74
2022/05/20 01:21:43;;;;;;;15.52;6.97;;;;;;;;;;4981749;28;20030;-74
2022/05/20 01:24:09;;;;;;;15.63;7.95;;;;;;;;;;4975050;28;20482;-74
2022/05/20 01:26:35;;;;;;;13.07;7.10;;;;;;;;;;4985398;28;20031;-74
2022/05/20 01:29:01;;;;;;;10.02;7.15;;;;;;;;;;4992938;28;20069;-74
2022/05/20 01:31:27;;;;;;;16.48;7.18;;;;;;;;;;5003117;28;21006;-74
2022/05/20 01:33:53;;;;;;;20.00;8.13;;;;;;;;;;4995168;28;20046;-74
2022/05/20 01:36:23;;;;;;;9.27;7.07;;;13.50;99.90;;;;;;4985384;28;20093;-75
2022/05/20 01:38:49;;;;;;;13.38;7.07;;;;;;;;;;4961343;28;20083;-74
2022/05/20 01:41:19;;;;;;;9.50;7.55;;;;;;;;;;4975171;28;20027;-75
2022/05/20 01:44:01;;;;;;;12.20;7.82;;;;;;;;;;4975083;28;20053;-75
2022/05/20 01:46:39;;;;;;;9.23;7.75;;;;;;;;;;4974935;28;20035;-75
2022/05/20 01:49:14;;;;;;;14.27;8.45;;;;;;;;;;4971790;28;20063;-74
2022/05/20 01:51:53;;;;;;;11.30;8.68;;;13.50;99.90;;;;;;4982334;28;20031;-75
2022/05/20 01:54:35;;;;;;;12.77;8.77;;;13.50;99.90;;;;;;4976890;28;20026;-75
2022/05/20 01:57:23;;;;;;;13.30;8.77;;;;;;;;;;4974508;28;20031;-74
2022/05/20 01:59:56;;;;;;;12.15;9.30;;;;;;;;;;4969385;28;20030;-75
2022/05/20 02:02:29;;;;;;;20.02;9.23;;;;;;;;;;4978463;28;20386;-75
2022/05/20 02:04:58;;;;;;;14.05;9.50;;;;;;;;;;4973396;28;20031;-75
2022/05/20 02:07:29;;;;;;;13.45;7.63;;;13.60;99.90;;;;;;4986400;28;20034;-75
2022/05/20 02:09:55;;;;;;;12.70;8.13;;;;;;;;;;4987397;28;20049;-75
2022/05/20 02:12:23;;;;;;;12.07;8.38;;;;;;;;;;4974420;28;20030;-75
2022/05/20 02:15:01;;;;;;;12.27;9.18;;;;;;;;;;4973129;28;20034;-75
2022/05/20 02:17:27;;;;;;;11.55;8.30;;;;;;;;;;4990339;28;20359;-75
2022/05/20 02:20:05;;;;;;;15.70;8.75;;;;;;;;;;4986181;28;20045;-75
2022/05/20 02:22:33;;;;;;;9.50;7.75;;;;;;;;;;4974822;28;20045;-75
2022/05/20 02:25:02;;;;;;;14.45;7.97;;;13.40;99.90;;;;;;4984065;28;20054;-75
2022/05/20 02:27:35;;;;;;;16.05;9.30;;;13.30;99.90;;;;;;4977631;28;20450;-75
2022/05/20 02:30:01;;;;;;;12.50;8.32;;;;;;;;;;4957169;28;20027;-75
2022/05/20 02:32:38;;;;;;;13.80;8.85;;;;;;;;;;4991375;28;20038;-75
2022/05/20 02:35:04;;;;;;;16.15;8.98;;;;;;;;;;4976678;28;20045;-75
2022/05/20 02:37:34;;;;;;;12.63;9.55;;;13.40;99.90;;;;;;4973090;28;20035;-75
2022/05/20 02:40:01;;;;;;;12.68;8.30;;;;;;;;;;4993727;28;20018;-75
2022/05/20 02:42:28;;;;;;;11.35;8.40;;;;;;;;;;4987155;28;21368;-75
2022/05/20 02:44:55;;;;;;;12.93;8.18;;;;;;;;;;4984807;28;20030;-75
2022/05/20 02:47:21;;;;;;;11.48;8.52;;;;;;;;;;4978229;28;20031;-75
2022/05/20 02:49:47;;;;;;;11.43;9.20;;;;;;;;;;4976059;28;20082;-75
2022/05/20 02:52:14;;;;;;;11.50;8.52;;;;;;;;;;4993128;28;20425;-75
2022/05/20 02:54:40;;;;;;;10.80;8.45;;;;;;;;;;4971124;28;20081;-75
2022/05/20 02:57:06;;;;;;;15.90;9.05;;;;;;;;;;4974010;28;20039;-75
2022/05/20 03:05:02;;;;;;;16.80;11.20;;;;;;;;;;4972368;28;20058;-75
2022/05/20 03:07:28;;;;;;;15.93;10.30;;;;;;;;;;4989397;28;20031;-75
2022/05/20 03:09:54;;;;;;;12.10;8.88;;;;;;;;;;4981493;28;20390;-75
2022/05/20 03:12:20;;;;;;;13.88;9.75;;;;;;;;;;4978409;28;20044;-75
2022/05/20 03:14:46;;;;;;;16.95;9.20;;;;;;;;;;4992234;28;20540;-76
2022/05/20 03:17:12;;;;;;;13.50;8.77;;;;;;;;;;4987004;28;20043;-75
2022/05/20 03:19:38;;;;;;;13.85;9.85;;;;;;;;;;4986277;28;20038;-76
2022/05/20 03:22:05;;;;;;;13.80;8.38;;;;;;;;;;4973061;28;20050;-75
2022/05/20 03:24:32;;;;;;;10.68;8.90;;;;;;;;;;4973055;28;20501;-75
2022/05/20 03:26:58;;;;;;;17.25;9.32;;;;;;;;;;4957163;28;20030;-75
2022/05/20 03:29:25;;;;;;;14.80;10.13;;;;;;;;;;4979599;28;20112;-75
2022/05/20 03:31:51;;;;;;;16.92;10.68;;;;;;;;;;4986004;28;20042;-75
2022/05/20 03:34:17;;;;;;;14.10;10.35;;;;;;;;;;4978518;28;20062;-75
2022/05/20 03:36:44;;;;;;;17.52;10.32;;;;;;;;;;4982060;28;20022;-75
2022/05/20 03:39:13;;;;;;;13.38;10.88;;;12.40;99.90;;;;;;4988796;28;20042;-75
2022/05/20 03:41:39;;;;;;;14.93;10.27;;;;;;;;;;4972149;28;20030;-75
2022/05/20 03:44:06;;;;;;;12.65;10.05;;;;;;;;;;4972651;28;20039;-76
2022/05/20 03:46:32;;;;;;;12.90;10.65;;;;;;;;;;4983272;28;20033;-75
2022/05/20 03:48:59;;;;;;;15.25;10.73;;;12.40;99.90;;;;;;4955882;28;20039;-75
2022/05/20 03:51:25;;;;;;;14.10;9.48;;;;;;;;;;4988457;28;20030;-75
2022/05/20 03:53:52;;;;;;;15.07;9.80;;;;;;;;;;4965394;28;20026;-75
2022/05/20 03:56:18;;;;;;;11.88;9.52;;;;;;;;;;4972506;28;20111;-75
2022/05/20 03:58:44;;;;;;;13.25;10.77;;;;;;;;;;4971334;28;20043;-75
2022/05/20 04:03:56;;;;;;;18.20;10.55;;;;;;;;;;4957835;28;20098;-75
2022/05/20 04:06:22;;;;;;;19.77;11.60;;;;;;;;;;4975512;28;20127;-74
2022/05/20 04:08:48;;;;;;;16.70;12.57;;;;;;;;;;4973432;28;20437;-75
2022/05/20 04:11:15;;;;;;;16.17;11.68;;;;;;;;;;4984288;28;20031;-75
2022/05/20 04:13:41;;;;;;;16.88;11.57;;;;;;;;;;4990792;28;20050;-75
2022/05/20 04:16:09;;;;;;;17.10;12.13;;;;;;;;;;4982003;28;20398;-75
2022/05/20 04:18:35;;;;;;;16.92;12.68;;;;;;;;;;4987264;28;20485;-75
2022/05/20 04:21:02;;;;;;;19.17;14.48;;;;;;;;;;4975972;28;20019;-75
2022/05/20 04:23:28;;;;;;;16.92;12.90;;;;;;;;;;4975459;28;20050;-74
2022/05/20 04:25:54;;;;;;;15.40;12.13;;;;;;;;;;4957237;28;20367;-75
2022/05/20 04:28:20;;;;;;;16.23;11.82;;;;;;;;;;4955115;28;20038;-75
2022/05/20 04:30:46;;;;;;;17.00;12.05;;;;;;;;;;4981341;28;20042;-74
2022/05/20 04:33:13;;;;;;;12.35;10.88;;;;;;;;;;4981694;28;20041;-74
2022/05/20 04:35:39;;;;;;;23.83;17.15;;;;;;;;;;4977117;28;20086;-75
2022/05/20 04:38:05;;;;;;;18.58;12.55;;;;;;;;;;4974561;28;20031;-74
2022/05/20 04:40:31;;;;;;;21.17;13.65;;;;;;;;;;4982208;28;20600;-74
2022/05/20 04:48:28;;;;;;;14.50;13.00;;;;;;;;;;4980809;28;20068;-74
2022/05/20 04:50:54;;;;;;;15.68;12.93;;;;;;;;;;4980869;28;20031;-74
2022/05/20 04:56:05;;;;;;;16.23;12.32;;;;;;;;;;4963727;28;20069;-74
2022/05/20 04:58:31;;;;;;;20.17;12.70;;;;;;;;;;4976081;28;20034;-73
2022/05/20 05:00:57;;;;;;;16.30;13.18;;;;;;;;;;4986128;28;20041;-74
2022/05/20 05:03:23;;;;;;;17.15;12.98;;;;;;;;;;4964369;28;20039;-73
2022/05/20 05:05:49;;;;;;;24.05;14.82;;;;;;;;;;4975515;28;20117;-73
2022/05/20 05:08:16;;;;;;;21.13;14.38;;;12.50;99.90;;;;;;4969330;28;20452;-73
2022/05/20 05:10:42;;;;;;;19.65;14.52;;;;;;;;;;4986801;28;20035;-73
2022/05/20 05:13:09;;;;;;;21.75;15.65;;;;;;;;;;4988565;28;20124;-73
2022/05/20 05:15:35;;;;;;;17.55;15.02;;;;;;;;;;4984977;28;20049;-73
2022/05/20 05:18:14;;;;;;;23.75;14.73;;;;;;;;;;4980287;28;20364;-73
2022/05/20 05:20:47;;;;;;;23.23;15.63;;;;;;;;;;4974610;28;20497;-72
2022/05/20 05:23:14;;;;;;;17.30;14.60;;;;;;;;;;4977571;28;20045;-73
2022/05/20 05:25:41;;;;;;;25.95;15.95;;;;;;;;;;4960210;28;20080;-73
2022/05/20 05:28:07;;;;;;;16.55;14.00;;;;;;;;;;4980363;28;20026;-73
2022/05/20 05:30:33;;;;;;;26.98;16.65;;;;;;;;;;4981391;28;20038;-73
2022/05/20 05:32:59;;;;;;;20.95;14.77;;;;;;;;;;4975802;28;20038;-74
2022/05/20 05:35:27;;;;;;;27.08;15.23;;;;;;;;;;4977792;28;20035;-75
2022/05/20 05:37:53;;;;;;;26.98;16.27;;;;;;;;;;4966509;28;20026;-75
2022/05/20 05:40:25;;;;;;;20.63;14.90;;;;;;;;;;4980527;28;20484;-75
2022/05/20 05:42:51;;;;;;;26.02;14.73;;;;;;;;;;4987200;28;20050;-76
2022/05/20 05:45:19;;;;;;;19.23;13.45;;;;;;;;;;4981020;28;20042;-75
2022/05/20 05:47:48;;;;;;;23.40;13.82;;;;;;;;;;4981291;28;20038;-74
2022/05/20 05:50:14;;;;;;;16.77;12.18;;;;;;;;;;4962359;28;20072;-75
2022/05/20 05:52:40;;;;;;;17.80;10.27;;;;;;;;;;4973534;28;20078;-74
2022/05/20 05:55:06;;;;;;;16.98;10.25;;;;;;;;;;4975277;28;20122;-74
2022/05/20 05:57:32;;;;;;;104.10;69.78;;;;;;;;;;4990346;28;20034;-76
2022/05/20 05:59:58;;;;;;;27.85;15.23;;;;;;;;;;4980152;28;20042;-73
2022/05/20 06:02:24;;;;;;;16.30;9.07;;;;;;;;;;4987050;28;20038;-75
2022/05/20 06:04:51;;;;;;;18.88;8.90;;;;;;;;;;4987688;28;20061;-77
2022/05/20 06:07:18;;;;;;;15.40;8.15;;;;;;;;;;4988280;28;20026;-74
2022/05/20 06:09:45;;;;;;;18.85;8.43;;;;;;;;;;4991307;28;20390;-74
2022/05/20 06:12:12;;;;;;;17.45;6.68;;;;;;;;;;4975604;28;20111;-74
2022/05/20 06:14:39;;;;;;;18.85;6.75;;;;;;;;;;4990074;28;20034;-74
2022/05/20 06:17:05;;;;;;;12.48;6.47;;;;;;;;;;4986147;28;20077;-74
2022/05/20 06:19:31;;;;;;;11.98;4.45;;;;;;;;;;4981170;28;20042;-75
2022/05/20 06:21:57;;;;;;;11.95;4.40;;;;;;;;;;4977408;28;20030;-74
2022/05/20 06:24:23;;;;;;;10.13;4.20;;;;;;;;;;4976723;28;20058;-74
2022/05/20 06:26:49;;;;;;;12.45;4.80;;;;;;;;;;4993134;28;20394;-75
2022/05/20 06:29:15;;;;;;;12.02;4.75;;;;;;;;;;4987532;28;20033;-74
2022/05/20 06:31:42;;;;;;;12.60;3.47;;;;;;;;;;4989606;28;20046;-74
2022/05/20 06:34:08;;;;;;;10.10;3.17;;;;;;;;;;4986570;28;20022;-74
2022/05/20 06:42:03;;;;;;;7.47;3.80;;;;;;;;;;4976663;28;20115;-74
2022/05/20 06:44:32;;;;;;;11.85;4.10;;;;;;;;;;4955128;28;20043;-73
2022/05/20 06:46:58;;;;;;;11.63;4.22;;;;;;;;;;4966973;28;20046;-74
2022/05/20 06:49:24;;;;;;;6.10;2.95;;;;;;;;;;4973091;28;20042;-74
2022/05/20 06:51:54;;;;;;;10.50;3.28;;;;;;;;;;4973309;28;20056;-73
2022/05/20 06:54:20;;;;;;;16.73;4.00;;;;;;;;;;4973487;28;20034;-74
2022/05/20 06:56:46;;;;;;;12.90;4.20;;;;;;;;;;4986357;28;20138;-73
2022/05/20 06:59:12;;;;;;;15.98;4.30;;;;;;;;;;4967508;28;20498;-73
2022/05/20 07:01:38;;;;;;;10.95;4.00;;;;;;;;;;4956627;28;20123;-74
2022/05/20 07:04:05;;;;;;;11.10;3.17;;;;;;;;;;4990964;28;20054;-73
2022/05/20 07:06:32;;;;;;;14.77;5.03;;;;;;;;;;4988206;28;20051;-74
2022/05/20 07:08:58;;;;;;;11.10;4.25;;;;;;;;;;4981995;28;20556;-73
2022/05/20 07:11:25;;;;;;;10.57;3.90;;;19.20;99.90;;;;;;4987293;28;20409;-75
2022/05/20 07:13:54;;;;;;;12.77;4.70;;;;;;;;;;4979492;28;20043;-76
2022/05/20 07:16:20;;;;;;;7.65;3.80;;;;;;;;;;4981656;28;20030;-76
2022/05/20 07:18:48;;;;;;;10.80;3.75;;;;;;;;;;4984056;28;20041;-75
2022/05/20 07:21:14;;;;;;;10.55;4.05;;;;;;;;;;4982000;28;20093;-75
2022/05/20 07:23:40;;;;;;;9.45;3.03;;;;;;;;;;4986689;28;20070;-74
2022/05/20 07:26:08;;;;;;;10.25;3.45;;;;;;;;;;4993045;28;20466;-74
2022/05/20 07:28:34;;;;;;;12.02;2.80;;;22.30;99.90;;;;;;4978729;28;20033;-74
2022/05/20 07:31:01;;;;;;;7.43;3.03;;;22.50;99.90;;;;;;4977754;28;20121;-74
2022/05/20 07:33:28;;;;;;;10.32;3.00;;;;;;;;;;4974740;28;20509;-74
2022/05/20 07:35:55;;;;;;;13.38;3.92;;;;;;;;;;4985254;28;20487;-74
2022/05/20 07:38:22;;;;;;;8.30;2.88;;;23.40;99.90;;;;;;4978140;28;20054;-74
2022/05/20 07:40:48;;;;;;;8.38;2.75;;;;;;;;;;4978105;28;20033;-77
2022/05/20 07:43:14;;;;;;;7.25;3.65;;;;;;;;;;4957460;28;20035;-72
2022/05/20 07:45:40;;;;;;;8.13;3.45;;;;;;;;;;4982326;28;20030;-71
2022/05/20 07:48:07;;;;;;;8.18;3.38;;;;;;;;;;4976846;28;20023;-77
2022/05/20 07:50:39;;;;;;;7.07;3.10;;;23.20;99.90;;;;;;4975369;28;20063;-75
2022/05/20 07:53:20;;;;;;;9.57;3.22;;;;;;;;;;4958769;28;20045;-75
2022/05/20 07:55:48;;;;;;;8.70;2.60;;;;;;;;;;4970666;28;20118;-75
2022/05/20 07:58:17;;;;;;;12.15;3.05;;;;;;;;;;4982772;28;20038;-75
2022/05/20 08:00:43;;;;;;;12.93;3.50;;;;;;;;;;4983042;28;20031;-75
2022/05/20 08:03:10;;;;;;;10.05;3.47;;;;;;;;;;4961230;28;20466;-75
2022/05/20 08:05:37;;;;;;;9.60;3.25;;;;;;;;;;4977104;28;20042;-75
2022/05/20 08:08:06;;;;;;;9.20;2.90;;;;;;;;;;4973439;28;20435;-75
2022/05/20 08:10:35;;;;;;;6.75;3.15;;;;;;;;;;4976936;28;20383;-78
2022/05/20 08:13:02;;;;;;;12.32;3.50;;;;;;;;;;4980580;28;20110;-78
2022/05/20 08:15:31;;;;;;;8.25;3.00;;;;;;;;;;4984651;28;20031;-76
2022/05/20 08:17:57;;;;;;;10.55;3.65;;;;;;;;;;4979199;28;20038;-74
2022/05/20 08:20:30;;;;;;;8.43;3.40;;;;;;;;;;4986905;28;20098;-72
2022/05/20 08:22:56;;;;;;;10.88;3.42;;;;;;;;;;4976315;28;20035;-73
2022/05/20 08:25:24;;;;;;;7.43;4.25;;;;;;;;;;4983838;28;20089;-73
2022/05/20 08:27:50;;;;;;;7.30;3.10;;;;;;;;;;4977785;28;20034;-74
2022/05/20 08:30:18;;;;;;;6.80;3.30;;;;;;;;;;4993702;28;20038;-74
2022/05/20 08:32:44;;;;;;;8.25;2.95;;;;;;;;;;4992096;28;20030;-75
2022/05/20 08:35:11;;;;;;;7.90;2.72;;;;;;;;;;4985536;28;20058;-75
2022/05/20 08:37:38;;;;;;;9.32;3.50;;;;;;;;;;4987931;28;20505;-75
2022/05/20 08:40:04;;;;;;;7.35;2.67;;;;;;;;;;4979253;28;20062;-75
2022/05/20 08:42:31;;;;;;;8.68;3.22;;;;;;;;;;4986813;28;20065;-75
2022/05/20 08:44:57;;;;;;;8.75;3.20;;;;;;;;;;4983287;28;20022;-74
2022/05/20 08:47:23;;;;;;;7.10;2.60;;;;;;;;;;4987207;28;20031;-75
2022/05/20 08:49:54;;;;;;;7.28;2.70;;;;;;;;;;4985223;28;20035;-75
2022/05/20 08:52:20;;;;;;;6.65;2.97;;;;;;;;;;4987310;28;20373;-74
2022/05/20 08:54:46;;;;;;;15.05;3.92;;;;;;;;;;4981161;28;20029;-75
2022/05/20 08:57:33;;;;;;;8.30;3.40;;;;;;;;;;4960662;28;20082;-78
2022/05/20 08:59:59;;;;;;;9.13;3.20;;;;;;;;;;4973897;28;20030;-76
2022/05/20 09:02:25;;;;;;;6.70;3.40;;;;;;;;;;4988568;28;20047;-77
2022/05/20 09:04:52;;;;;;;8.57;3.60;;;;;;;;;;4986898;28;20117;-77
2022/05/20 09:07:19;;;;;;;7.45;2.90;;;;;;;;;;4985821;28;20040;-75
2022/05/20 09:09:47;;;;;;;8.82;2.70;;;;;;;;;;4984196;28;20045;-76
2022/05/20 09:12:33;;;;;;;5.50;2.80;;;;;;;;;;4980099;28;20125;-77
2022/05/20 09:17:46;;;;;;;9.40;3.22;;;;;;;;;;4984139;28;20042;-74
2022/05/20 09:20:14;;;;;;;3.70;2.30;;;;;;;;;;4978519;28;20027;-74
2022/05/20 09:22:41;;;;;;;6.25;2.40;;;;;;;;;;4986953;28;20045;-75
2022/05/20 09:25:12;;;;;;;5.78;2.55;;;;;;;;;;4971843;28;20178;-75
2022/05/20 09:27:39;;;;;;;4.68;2.40;;;;;;;;;;4975792;28;20070;-75
2022/05/20 09:30:07;;;;;;;25.95;19.33;;;;;;;;;;4979313;28;20042;-74
2022/05/20 09:32:36;;;;;;;9.00;3.17;;;;;;;;;;4976174;28;20497;-72
2022/05/20 09:35:05;;;;;;;4.43;2.60;;;;;;;;;;4974596;28;20105;-75
2022/05/20 09:37:34;;;;;;;7.25;2.05;;;;;;;;;;4970042;28;20094;-75
2022/05/20 09:40:15;;;;;;;4.57;2.03;;;;;;;;;;4992214;28;20027;-74
2022/05/20 09:42:55;;;;;;;5.95;2.75;;;;;;;;;;4979085;28;20082;-74
2022/05/20 09:45:21;;;;;;;7.05;2.28;;;;;;;;;;4979101;28;20035;-76
2022/05/20 09:47:53;;;;;;;4.57;1.90;;;;;;;;;;4983321;28;20039;-77
2022/05/20 09:50:25;;;;;;;5.45;2.22;;;;;;;;;;4989387;28;20085;-77
2022/05/20 09:52:51;;;;;;;;;;;;;;;;;;4992975;28;20057;-76
2022/05/20 09:55:29;;;;;;;7.18;2.75;;;;;;;;;;4992400;28;19909;-77
2022/05/20 09:57:56;;;;;;;8.93;3.38;;;;;;;;;;4974557;28;20015;-77
2022/05/20 10:00:26;;;;;;;7.03;2.58;;;;;;;;;;4963007;28;20026;-77
2022/05/20 10:03:04;;;;;;;9.80;3.28;;;;;;;;;;4977016;28;20038;-76
2022/05/20 10:05:33;;;;;;;7.68;2.80;;;;;;;;;;4990349;28;20089;-76
2022/05/20 10:08:09;;;;;;;6.55;2.25;;;;;;;;;;4982579;28;20027;-76
2022/05/20 10:10:49;;;;;;;4.68;2.38;;;;;;;;;;4976778;28;20030;-76
2022/05/20 10:13:24;;;;;;;5.80;2.33;;;;;;;;;;4979525;28;20041;-77
2022/05/20 10:15:53;;;;;;;5.78;2.55;;;;;;;;;;4989619;28;20042;-76
2022/05/20 10:18:37;;;;;;;7.20;2.22;;;;;;;;;;4978226;28;20023;-76
2022/05/20 10:21:21;;;;;;;9.63;3.17;;;;;;;;;;4984132;28;20049;-76
2022/05/20 10:24:02;;;;;;;5.78;2.70;;;;;;;;;;4970865;28;20034;-78
2022/05/20 10:26:41;;;;;;;9.20;2.88;;;;;;;;;;4972784;28;20043;-77
2022/05/20 10:34:57;;;;;;;7.25;1.95;;;;;;;;;;4982780;28;20049;-76
2022/05/20 10:37:40;;;;;;;6.72;2.50;;;;;;;;;;4981871;28;20026;-76
2022/05/20 10:40:26;;;;;;;5.60;2.38;;;;;;;;;;4975684;28;20031;-76
2022/05/20 10:43:08;;;;;;;5.35;1.75;;;;;;;;;;4978369;28;20039;-76
2022/05/20 10:48:44;;;;;;;6.88;2.38;;;;;;;;;;4973900;28;20169;-79
2022/05/20 10:51:22;;;;;;;10.50;6.72;;;;;;;;;;4976646;28;20041;-77
2022/05/20 10:53:55;;;;;;;5.25;2.47;;;;;;;;;;4973292;28;20023;-76
2022/05/20 10:56:27;;;;;;;7.43;1.77;;;;;;;;;;4980827;28;20498;-75
2022/05/20 10:59:12;;;;;;;7.20;2.22;;;;;;;;;;4983468;28;20038;-74
2022/05/20 11:01:50;;;;;;;6.20;1.95;;;;;;;;;;4973542;28;20031;-75
2022/05/20 11:04:27;;;;;;;6.88;2.08;;;;;;;;;;4973954;28;20455;-75
2022/05/20 11:07:14;;;;;;;9.88;2.20;;;;;;;;;;4939916;28;1124331;-76
2022/05/20 11:09:49;;;;;;;5.97;2.40;;;;;;;;;;4974898;28;20114;-75
2022/05/20 11:12:42;;;;;;;5.20;2.33;;;;;;;;;;4978177;28;20488;-75
2022/05/20 11:15:21;;;;;;;5.35;1.90;;;;;;;;;;4973497;28;20121;-75
2022/05/20 11:17:56;;;;;;;4.93;2.10;;;;;;;;;;4970685;28;20121;-75
2022/05/20 11:20:24;;;;;;;6.97;2.25;;;22.60;99.90;;;;;;4979134;28;20053;-75
2022/05/20 11:23:09;;;;;;;5.00;2.35;;;22.60;99.90;;;;;;4985685;28;20205;-75
2022/05/20 11:25:35;;;;;;;6.63;2.92;;;;;;;;;;4976047;28;20026;-75
2022/05/20 11:28:01;;;;;;;9.50;2.30;;;;;;;;;;4955434;28;20210;-75
2022/05/20 11:30:56;;;;;;;3.85;2.25;;;22.80;99.90;;;;;;4978646;28;20561;-74
2022/05/20 11:34:00;;;;;;;8.50;4.53;;;22.60;99.90;;;;;;4963542;28;20097;-74
2022/05/20 11:36:38;;;;;;;9.75;5.03;;;22.60;99.90;;;;;;4971687;28;20078;-76
2022/05/20 11:39:32;;;;;;;9.23;3.83;;;22.60;99.90;;;;;;4982065;28;20035;-76
2022/05/20 11:42:28;;;;;;;9.10;3.90;;;22.60;99.90;;;;;;4971942;28;20158;-74
2022/05/20 11:44:54;;;;;;;7.80;4.00;;;;;;;;;;4984200;28;20129;-74
2022/05/20 11:48:10;;;;;;;8.18;4.60;;;22.40;99.90;;;;;;4974915;28;20502;-75
2022/05/20 11:51:01;;;;;;;4.82;3.20;;;22.20;99.90;;;;;;4954570;28;20506;-75
2022/05/20 11:53:50;;;;;;;4.97;3.35;;;22.20;99.90;;;;;;4973326;28;20086;-74
2022/05/20 11:56:43;;;;;;;3.42;3.13;;;22.20;99.90;;;;;;4972719;28;20027;-74
2022/05/20 11:59:21;;;;;;;6.20;2.33;;;22.30;99.90;;;;;;4971502;28;20486;-74
2022/05/20 12:01:49;;;;;;;4.68;2.70;;;22.20;99.90;;;;;;4998811;28;20037;-75
2022/05/20 12:04:18;;;;;;;4.53;2.50;;;22.30;99.90;;;;;;4987654;28;20031;-74
2022/05/20 12:06:58;;;;;;;3.97;2.30;;;22.20;99.90;;;;;;4990488;28;20050;-74
2022/05/20 12:09:32;;;;;;;5.30;1.98;;;22.30;99.90;;;;;;4970514;28;20462;-74
2022/05/20 12:12:21;;;;;;;3.08;2.03;;;22.50;99.90;;;;;;4972101;28;20110;-74
2022/05/20 12:15:09;;;;;;;3.00;1.92;;;22.60;99.90;;;;;;4972612;28;20455;-74
2022/05/20 12:17:38;;;;;;;2.90;1.85;;;22.50;99.90;;;;;;4965605;28;20085;-75
2022/05/20 12:26:08;;;;;;;5.40;1.98;;;;;;;;;;4948049;28;20034;-75
2022/05/20 12:28:39;;;;;;;4.40;2.08;;;23.00;99.90;;;;;;4991714;28;20109;-75
2022/05/20 12:31:23;;;;;;;8.13;2.20;;;22.90;99.50;;;;;;4994328;28;20112;-74
2022/05/20 12:34:06;;;;;;;5.07;1.77;;;22.90;99.50;;;;;;4982644;28;20041;-74
2022/05/20 12:36:32;;;;;;;5.57;1.90;;;;;;;;;;4978670;28;20030;-74
2022/05/20 12:39:07;;;;;;;3.92;2.17;;;23.10;99.90;;;;;;4991241;28;20049;-74
2022/05/20 12:41:43;;;;;;;3.40;2.30;;;23.20;99.90;;;;;;4987968;28;20027;-74
2022/05/20 12:44:22;;;;;;;3.28;2.05;;;;;;;;;;4971041;28;20122;-75
2022/05/20 12:46:59;;;;;;;5.05;2.22;;;23.40;99.50;;;;;;4999354;28;20076;-73
2022/05/20 12:49:31;;;;;;;8.68;2.80;;;23.40;99.90;;;;;;5009024;28;20034;-74
2022/05/20 12:52:05;;;;;;;3.72;2.08;;;;;;;;;;4973767;28;20026;-75
2022/05/20 12:54:31;;;;;;;5.85;2.28;;;;;;;;;;4983747;28;20046;-74
2022/05/20 12:57:14;;;;;;;6.43;2.53;;;23.30;99.90;;;;;;4991034;28;20046;-74
2022/05/20 12:59:40;;;;;;;3.47;2.20;;;;;;;;;;4988069;28;20031;-73
2022/05/20 13:02:08;;;;;;;4.95;2.30;;;;;;;;;;4970823;28;20086;-74
2022/05/20 13:04:38;;;;;;;6.97;2.47;;;22.60;99.90;;;;;;4959678;28;20125;-74
2022/05/20 13:07:05;;;;;;;4.32;2.22;;;;;;;;;;4977813;28;20042;-74
2022/05/20 13:09:42;;;;;;;6.65;2.50;;;22.30;99.90;;;;;;4957436;28;20034;-74
2022/05/20 13:12:14;;;;;;;4.20;1.80;;;22.30;99.90;;;;;;4959427;28;20042;-74
2022/05/20 13:14:40;;;;;;;3.30;1.70;;;;;;;;;;4974998;28;20031;-74
2022/05/20 13:17:08;;;;;;;4.22;1.98;;;22.10;99.90;;;;;;4984240;28;20027;-74
2022/05/20 13:19:46;;;;;;;4.55;1.80;;;;;;;;;;4988344;28;20030;-74
2022/05/20 13:22:13;;;;;;;6.00;2.25;;;;;;;;;;4964368;28;20038;-74
2022/05/20 13:24:39;;;;;;;16.13;2.10;;;21.70;99.90;;;;;;4980949;28;20034;-74
2022/05/20 13:27:08;;;;;;;3.05;1.80;;;;;;;;;;4987597;28;20035;-74
2022/05/20 13:29:35;;;;;;;3.20;1.95;;;;;;;;;;4992894;28;20034;-74
2022/05/20 13:32:18;;;;;;;3.85;2.20;;;;;;;;;;4978780;28;20039;-73
2022/05/20 13:34:47;;;;;;;4.00;1.83;;;21.30;99.90;;;;;;4976757;28;20038;-75
2022/05/20 13:37:15;;;;;;;7.43;2.83;;;21.10;99.90;;;;;;4961824;28;20169;-74
2022/05/20 13:39:42;;;;;;;6.82;2.45;;;;;;;;;;4977725;28;20043;-75
2022/05/20 13:42:13;;;;;;;7.93;2.75;;;;;;;;;;4980312;28;20847;-75
2022/05/20 13:44:43;;;;;;;5.63;2.60;;;;;;;;;;4979882;28;21046;-74
2022/05/20 13:49:55;;;;;;;9.32;2.88;;;;;;;;;;4982378;28;20099;-72
2022/05/20 13:52:22;;;;;;;8.93;2.53;;;;;;;;;;4964107;28;20026;-73
2022/05/20 13:54:59;;;;;;;14.90;4.28;;;;;;;;;;4976612;28;20066;-74
2022/05/20 13:57:34;;;;;;;14.90;3.50;;;;;;;;;;4978793;28;20038;-74
2022/05/20 14:00:05;;;;;;;11.30;4.60;;;;;;;;;;4982673;28;20027;-75
2022/05/20 14:02:38;;;;;;;9.38;3.75;;;;;;;;;;4985159;28;20038;-75
2022/05/20 14:05:20;;;;;;;10.07;4.35;;;19.50;99.90;;;;;;4989565;28;20065;-76
2022/05/20 14:07:54;;;;;;;9.55;3.30;;;;;;;;;;4954484;28;20455;-76
2022/05/20 14:10:29;;;;;;;9.30;3.40;;;;;;;;;;4971830;28;20372;-77
2022/05/20 14:13:06;;;;;;;11.45;3.67;;;;;;;;;;4972429;28;20027;-76
2022/05/20 14:15:41;;;;;;;12.23;4.82;;;;;;;;;;4955550;28;20062;-77
2022/05/20 14:18:27;;;;;;;10.20;4.38;;;;;;;;;;4954221;28;20031;-76
2022/05/20 14:21:18;;;;;;;7.10;4.38;;;18.70;99.90;;;;;;4926841;28;20043;-77
2022/05/20 14:23:47;;;;;;;7.32;4.03;;;;;;;;;;4948950;28;20114;-78
2022/05/20 14:26:21;;;;;;;7.75;4.50;;;;;;;;;;4968205;28;20031;-77
2022/05/20 14:29:36;;;;;;;12.48;5.10;;;18.20;99.90;;;;;;4973062;28;20030;-77
2022/05/20 14:32:07;;;;;;;9.40;4.97;;;;;;;;;;4948782;28;20046;-76
2022/05/20 14:34:35;;;;;;;11.00;5.13;;;;;;;;;;4966965;28;20129;-76
2022/05/20 14:37:09;;;;;;;16.05;5.78;;;;;;;;;;4954606;28;20428;-76
2022/05/20 14:39:34;;;;;;;9.80;5.65;;;18.20;99.90;;;;;;4966979;28;20502;-76
2022/05/20 14:42:08;;;;;;;17.80;6.60;;;17.90;99.90;;;;;;4956261;28;20064;-77
2022/05/20 14:44:34;;;;;;;11.55;5.72;;;;;;;;;;4953482;28;20027;-78
2022/05/20 14:47:15;;;;;;;14.63;6.03;;;;;;;;;;4957692;28;20036;-79
2022/05/20 14:49:47;;;;;;;11.43;4.50;;;;;;;;;;4963003;28;20039;-79
2022/05/20 14:52:13;;;;;;;;;;;;;;;;;;4973115;28;20031;-79
2022/05/20 14:54:43;;;;;;;8.05;4.55;;;;;;;;;;4954392;28;19965;-78
2022/05/20 14:57:35;;;;;;;8.93;6.63;;;;;;;;;;4954228;28;20147;-78
2022/05/20 15:00:13;;;;;;;17.92;9.15;;;;;;;;;;4962310;28;20042;-78
2022/05/20 15:02:40;;;;;;;11.70;5.32;;;;;;;;;;4953838;28;20483;-78
2022/05/20 15:05:06;;;;;;;11.63;6.25;;;;;;;;;;4936799;28;20407;-78
2022/05/20 15:07:32;;;;;;;13.95;5.93;;;;;;;;;;4979624;28;20520;-78
2022/05/20 15:09:58;;;;;;;9.25;6.68;;;;;;;;;;4979514;28;20034;-78
2022/05/20 15:12:25;;;;;;;11.77;6.72;;;;;;;;;;4974917;28;20035;-78
2022/05/20 15:14:54;;;;;;;12.13;6.53;;;;;;;;;;4976261;28;20038;-78